createdAt,value
2018-08-30T00:02:22.611Z,35.37
2018-08-30T00:04:51.026Z,36.77
2018-08-30T00:07:19.498Z,36.73
2018-08-30T00:09:47.965Z,38.47
2018-08-30T00:12:16.397Z,36.73
2018-08-30T00:14:44.926Z,36.40
2018-08-30T00:17:13.385Z,31.03
2018-08-30T00:19:41.817Z,35.50
2018-08-30T00:22:10.264Z,32.50
2018-08-30T00:24:38.839Z,34.20
2018-08-30T00:27:07.297Z,36.97
2018-08-30T00:29:35.867Z,31.10
2018-08-30T00:32:04.327Z,35.43
2018-08-30T00:34:32.780Z,27.83
2018-08-30T00:37:01.233Z,35.17
2018-08-30T00:39:29.660Z,35.57
2018-08-30T00:41:58.894Z,35.40
2018-08-30T00:44:27.329Z,36.27
2018-08-30T00:46:55.766Z,34.60
2018-08-30T00:49:24.205Z,32.13
2018-08-30T00:51:52.667Z,33.87
2018-08-30T00:54:21.129Z,31.90
2018-08-30T00:56:49.624Z,36.63
2018-08-30T00:59:18.053Z,29.30
2018-08-30T01:01:46.509Z,34.37
2018-08-30T01:04:14.954Z,36.80
2018-08-30T01:06:43.366Z,33.23
2018-08-30T01:09:11.797Z,37.13
2018-08-30T01:11:40.257Z,36.43
2018-08-30T01:14:08.712Z,35.83
2018-08-30T01:16:37.139Z,35.63
2018-08-30T01:19:05.621Z,34.30
2018-08-30T01:21:34.053Z,32.13
2018-08-30T01:24:02.511Z,35.23
2018-08-30T01:26:30.932Z,39.23
2018-08-30T01:28:59.390Z,35.33
2018-08-30T01:31:27.878Z,39.73
2018-08-30T01:33:56.307Z,39.67
2018-08-30T01:36:24.757Z,37.90
2018-08-30T01:38:53.238Z,33.77
2018-08-30T01:41:21.690Z,36.07
2018-08-30T01:43:50.150Z,37.20
2018-08-30T01:46:18.630Z,37.93
2018-08-30T01:48:47.075Z,35.90
2018-08-30T01:51:15.532Z,34.70
2018-08-30T01:53:43.985Z,35.00
2018-08-30T01:56:12.445Z,35.03
2018-08-30T01:58:40.939Z,42.07
2018-08-30T02:01:09.354Z,34.87
2018-08-30T02:03:37.807Z,36.97
2018-08-30T02:06:06.255Z,34.60
2018-08-30T02:08:34.701Z,38.67
2018-08-30T02:11:03.137Z,34.87
2018-08-30T02:13:31.706Z,40.07
2018-08-30T02:16:00.097Z,36.90
2018-08-30T02:18:28.573Z,39.63
2018-08-30T02:20:57.021Z,37.53
2018-08-30T02:23:25.538Z,38.37
2018-08-30T02:25:54.190Z,36.37
2018-08-30T02:28:22.666Z,37.10
2018-08-30T02:30:51.149Z,33.63
2018-08-30T02:33:19.738Z,37.57
2018-08-30T02:35:48.214Z,35.40
2018-08-30T02:38:16.669Z,33.50
2018-08-30T02:40:45.094Z,35.97
2018-08-30T02:43:13.519Z,35.37
2018-08-30T02:45:41.938Z,33.97
2018-08-30T02:48:10.395Z,33.87
2018-08-30T02:50:38.814Z,33.50
2018-08-30T02:53:07.890Z,35.43
2018-08-30T02:55:36.329Z,38.97
2018-08-30T02:58:04.806Z,32.90
2018-08-30T03:00:33.185Z,35.10
2018-08-30T03:03:01.606Z,36.93
2018-08-30T03:05:29.993Z,32.63
2018-08-30T03:07:58.370Z,35.30
2018-08-30T03:10:26.771Z,31.07
2018-08-30T03:12:55.198Z,36.87
2018-08-30T03:15:23.576Z,31.93
2018-08-30T03:17:51.938Z,34.20
2018-08-30T03:20:20.397Z,34.50
2018-08-30T03:22:48.758Z,37.85
2018-08-30T03:25:17.189Z,35.00
2018-08-30T03:27:45.630Z,36.30
2018-08-30T03:30:14.116Z,35.10
2018-08-30T03:32:42.380Z,33.07
2018-08-30T03:35:10.765Z,35.87
2018-08-30T03:37:39.162Z,39.73
2018-08-30T03:40:07.603Z,37.50
2018-08-30T03:42:36.019Z,37.60
2018-08-30T03:45:04.432Z,35.13
2018-08-30T03:47:32.789Z,41.60
2018-08-30T03:50:01.183Z,39.10
2018-08-30T03:52:29.562Z,38.50
2018-08-30T03:54:57.978Z,39.73
2018-08-30T03:57:26.374Z,34.10
2018-08-30T03:59:54.777Z,40.17
2018-08-30T04:02:23.165Z,39.23
2018-08-30T04:04:51.581Z,42.63
2018-08-30T04:07:19.979Z,40.23
2018-08-30T04:09:48.445Z,43.83
2018-08-30T04:12:16.782Z,43.83
2018-08-30T04:14:45.171Z,41.93
2018-08-30T04:17:13.584Z,38.67
2018-08-30T04:19:42.051Z,39.93
2018-08-30T04:22:10.483Z,39.80
2018-08-30T04:24:38.912Z,38.90
2018-08-30T04:27:07.338Z,37.90
2018-08-30T04:29:35.778Z,36.70
2018-08-30T04:32:04.290Z,40.77
2018-08-30T04:34:32.685Z,34.83
2018-08-30T04:37:01.069Z,38.73
2018-08-30T04:39:29.489Z,38.50
2018-08-30T04:41:57.914Z,36.37
2018-08-30T04:44:26.323Z,36.43
2018-08-30T04:46:54.688Z,31.37
2018-08-30T04:49:23.088Z,30.97
2018-08-30T04:51:51.477Z,33.33
2018-08-30T04:54:19.903Z,36.97
2018-08-30T04:56:48.353Z,33.47
2018-08-30T04:59:16.802Z,32.67
2018-08-30T05:01:45.234Z,35.03
2018-08-30T05:04:13.644Z,32.90
2018-08-30T05:06:42.017Z,34.43
2018-08-30T05:09:11.778Z,34.40
2018-08-30T05:11:40.252Z,36.07
2018-08-30T05:14:09.040Z,32.00
2018-08-30T05:16:37.829Z,33.37
2018-08-30T05:19:06.309Z,34.60
2018-08-30T05:21:35.172Z,32.50
2018-08-30T05:24:03.592Z,33.97
2018-08-30T05:26:32.007Z,30.50
2018-08-30T05:29:00.377Z,31.50
2018-08-30T05:31:28.760Z,31.40
2018-08-30T05:33:57.136Z,28.97
2018-08-30T05:36:25.542Z,31.83
2018-08-30T05:38:54.013Z,29.17
2018-08-30T05:41:22.400Z,27.10
2018-08-30T05:43:50.797Z,31.13
2018-08-30T05:46:19.255Z,29.27
2018-08-30T05:48:47.652Z,33.00
2018-08-30T05:51:16.058Z,29.93
2018-08-30T05:53:44.460Z,30.20
2018-08-30T05:56:12.945Z,29.30
2018-08-30T05:58:41.381Z,32.60
2018-08-30T06:01:09.862Z,30.57
2018-08-30T06:03:38.274Z,31.73
2018-08-30T06:06:06.735Z,32.50
2018-08-30T06:08:35.151Z,29.73
2018-08-30T06:11:03.608Z,31.10
2018-08-30T06:13:32.023Z,29.40
2018-08-30T06:16:00.488Z,31.50
2018-08-30T06:18:28.964Z,29.37
2018-08-30T06:20:57.385Z,33.13
2018-08-30T06:23:25.803Z,31.07
2018-08-30T06:25:54.249Z,32.33
2018-08-30T06:28:22.677Z,32.17
2018-08-30T06:30:51.148Z,30.67
2018-08-30T06:33:19.637Z,28.87
2018-08-30T06:35:48.118Z,29.40
2018-08-30T06:38:16.530Z,28.80
2018-08-30T06:40:46.687Z,28.87
2018-08-30T06:43:26.613Z,32.10
2018-08-30T06:46:10.339Z,32.10
2018-08-30T06:51:16.605Z,27.50
2018-08-30T06:53:45.705Z,29.97
2018-08-30T06:56:15.503Z,29.30
2018-08-30T07:01:37.585Z,34.07
2018-08-30T07:04:07.103Z,33.13
2018-08-30T07:06:43.982Z,31.77
2018-08-30T07:09:13.862Z,31.57
2018-08-30T07:14:23.813Z,26.73
2018-08-30T07:16:52.369Z,29.20
2018-08-30T07:19:20.805Z,28.37
2018-08-30T07:21:49.314Z,30.90
2018-08-30T07:24:17.861Z,31.73
2018-08-30T07:26:46.278Z,29.97
2018-08-30T07:29:14.737Z,26.53
2018-08-30T07:31:43.193Z,25.53
2018-08-30T07:34:11.648Z,25.93
2018-08-30T07:36:40.101Z,26.23
2018-08-30T07:39:10.173Z,24.23
2018-08-30T07:41:38.653Z,18.50
2018-08-30T07:44:07.437Z,20.53
2018-08-30T07:46:35.889Z,17.37
2018-08-30T07:49:04.349Z,17.97
2018-08-30T07:51:32.793Z,16.00
2018-08-30T07:54:01.261Z,15.13
2018-08-30T07:56:29.669Z,17.03
2018-08-30T07:58:58.196Z,18.30
2018-08-30T08:01:26.617Z,15.37
2018-08-30T08:03:56.084Z,13.40
2018-08-30T08:06:24.522Z,11.73
2018-08-30T08:08:52.904Z,12.70
2018-08-30T08:11:21.299Z,12.77
2018-08-30T08:13:49.711Z,13.97
2018-08-30T08:16:18.103Z,13.03
2018-08-30T08:18:47.012Z,12.57
2018-08-30T08:21:15.415Z,10.07
2018-08-30T08:23:44.910Z,8.87
2018-08-30T08:26:13.304Z,8.73
2018-08-30T08:28:41.745Z,8.07
2018-08-30T08:31:10.440Z,7.03
2018-08-30T08:33:38.958Z,9.77
2018-08-30T08:36:07.397Z,12.53
2018-08-30T08:38:35.866Z,8.23
2018-08-30T08:41:04.256Z,8.47
2018-08-30T08:43:32.640Z,9.43
2018-08-30T08:46:01.043Z,6.13
2018-08-30T08:48:29.433Z,9.77
2018-08-30T08:50:57.816Z,9.00
2018-08-30T08:53:26.257Z,8.20
2018-08-30T08:55:54.653Z,7.20
2018-08-30T08:58:23.081Z,9.80
2018-08-30T09:00:51.464Z,6.20
2018-08-30T09:03:19.897Z,8.13
2018-08-30T09:05:48.272Z,7.07
2018-08-30T09:08:16.649Z,6.07
2018-08-30T09:10:45.064Z,8.83
2018-08-30T09:13:13.498Z,6.43
2018-08-30T09:15:41.891Z,5.33
2018-08-30T09:18:10.381Z,5.47
2018-08-30T09:20:38.782Z,5.43
2018-08-30T09:23:07.258Z,8.60
2018-08-30T09:25:36.032Z,6.27
2018-08-30T09:28:04.425Z,7.73
2018-08-30T09:30:32.805Z,5.60
2018-08-30T09:33:01.233Z,7.27
2018-08-30T09:35:29.625Z,5.70
2018-08-30T09:37:58.049Z,7.20
2018-08-30T09:40:26.409Z,7.43
2018-08-30T09:42:54.890Z,7.13
2018-08-30T09:45:23.277Z,5.30
2018-08-30T09:47:51.669Z,7.37
2018-08-30T09:50:20.050Z,5.17
2018-08-30T10:09:48.491Z,6.67
2018-08-30T10:12:16.945Z,6.17
2018-08-30T10:14:47.222Z,5.73
2018-08-30T10:17:15.697Z,6.63
2018-08-30T10:19:44.126Z,6.93
2018-08-30T10:22:12.569Z,4.80
2018-08-30T10:24:41.073Z,5.47
2018-08-30T10:27:09.480Z,6.63
2018-08-30T10:29:37.910Z,6.50
2018-08-30T10:32:06.417Z,5.63
2018-08-30T10:34:34.823Z,3.97
2018-08-30T10:37:03.258Z,7.00
2018-08-30T10:39:31.638Z,5.97
2018-08-30T10:42:00.050Z,4.80
2018-08-30T10:44:28.474Z,4.73
2018-08-30T10:46:56.882Z,3.40
2018-08-30T10:49:25.390Z,4.13
2018-08-30T10:51:53.756Z,7.83
2018-08-30T10:54:22.236Z,3.70
2018-08-30T10:56:50.796Z,5.53
2018-08-30T10:59:19.249Z,4.50
2018-08-30T11:01:47.756Z,8.93
2018-08-30T11:04:16.165Z,4.80
2018-08-30T11:06:44.694Z,7.37
2018-08-30T11:09:13.108Z,3.30
2018-08-30T11:11:41.587Z,5.17
2018-08-30T11:14:10.026Z,2.80
2018-08-30T11:16:48.320Z,5.30
2018-08-30T11:19:16.727Z,6.53
2018-08-30T11:21:45.153Z,5.33
2018-08-30T11:24:13.614Z,4.77
2018-08-30T11:26:41.993Z,6.27
2018-08-30T11:29:10.453Z,4.03
2018-08-30T11:31:38.830Z,4.30
2018-08-30T11:34:07.547Z,2.87
2018-08-30T11:36:42.322Z,6.33
2018-08-30T11:39:10.800Z,4.20
2018-08-30T11:41:39.438Z,6.33
2018-08-30T11:44:08.241Z,5.13
2018-08-30T11:46:37.162Z,6.00
2018-08-30T11:49:05.677Z,3.90
2018-08-30T11:51:34.092Z,3.50
2018-08-30T11:54:02.574Z,5.47
2018-08-30T11:56:31.037Z,3.10
2018-08-30T11:58:59.448Z,3.60
2018-08-30T12:01:27.887Z,3.83
2018-08-30T12:03:58.254Z,4.17
2018-08-30T12:06:26.785Z,3.47
2018-08-30T12:08:55.372Z,3.33
2018-08-30T12:11:23.984Z,3.80
2018-08-30T12:13:52.394Z,5.30
2018-08-30T12:16:20.793Z,4.63
2018-08-30T12:18:49.198Z,3.60
2018-08-30T12:21:17.693Z,3.83
2018-08-30T12:23:46.183Z,3.73
2018-08-30T12:26:14.609Z,4.30
2018-08-30T12:28:43.080Z,3.80
2018-08-30T12:31:11.582Z,3.57
2018-08-30T12:33:40.061Z,4.70
2018-08-30T12:36:08.732Z,4.63
2018-08-30T12:38:37.174Z,5.10
2018-08-30T12:41:05.606Z,3.97
2018-08-30T12:43:34.191Z,4.77
2018-08-30T12:46:02.524Z,4.73
2018-08-30T12:48:31.059Z,6.97
2018-08-30T12:50:59.639Z,3.93
2018-08-30T12:53:27.936Z,4.13
2018-08-30T12:55:57.045Z,3.23
2018-08-30T12:58:25.725Z,3.20
2018-08-30T13:00:54.129Z,3.57
2018-08-30T13:03:22.652Z,3.90
2018-08-30T13:05:51.227Z,4.37
2018-08-30T13:08:19.644Z,5.43
2018-08-30T13:10:53.280Z,6.10
2018-08-30T13:13:22.332Z,4.10
2018-08-30T13:15:50.975Z,4.83
2018-08-30T13:18:19.690Z,4.73
2018-08-30T13:20:48.570Z,2.30
2018-08-30T13:23:17.557Z,5.27
2018-08-30T13:25:46.337Z,3.93
2018-08-30T13:45:57.098Z,4.73
2018-08-30T13:48:25.537Z,6.63
2018-08-30T13:50:53.997Z,4.50
2018-08-30T13:53:22.289Z,6.03
2018-08-30T14:08:46.373Z,2.40
2018-08-30T14:11:14.891Z,4.20
2018-08-30T14:13:43.183Z,3.40
2018-08-30T14:16:12.087Z,3.13
2018-08-30T14:18:40.513Z,4.37
2018-08-30T14:21:09.022Z,4.20
2018-08-30T14:23:37.465Z,7.63
2018-08-30T14:26:05.957Z,5.33
2018-08-30T14:28:34.467Z,3.17
2018-08-30T14:31:02.863Z,3.93
2018-08-30T14:33:31.257Z,5.37
2018-08-30T14:35:59.679Z,4.83
2018-08-30T14:38:28.244Z,7.17
2018-08-30T14:40:56.750Z,6.33
2018-08-30T14:43:25.066Z,4.10
2018-08-30T14:45:53.522Z,6.80
2018-08-30T14:48:22.095Z,4.90
2018-08-30T14:50:56.545Z,5.57
2018-08-30T14:53:25.256Z,3.40
2018-08-30T14:55:53.544Z,3.87
2018-08-30T14:58:21.961Z,2.37
2018-08-30T15:00:50.415Z,4.93
2018-08-30T15:03:18.816Z,3.07
2018-08-30T15:05:47.276Z,5.53
2018-08-30T15:08:15.654Z,5.20
2018-08-30T15:10:44.097Z,4.43
2018-08-30T15:13:12.558Z,5.77
2018-08-30T15:15:41.043Z,5.27
2018-08-30T15:18:11.665Z,4.80
2018-08-30T15:20:40.094Z,5.97
2018-08-30T15:23:09.277Z,3.73
2018-08-30T15:25:37.715Z,3.93
2018-08-30T15:28:06.685Z,6.60
2018-08-30T15:30:35.124Z,4.70
2018-08-30T15:33:03.529Z,5.73
2018-08-30T15:35:31.984Z,3.93
2018-08-30T15:38:00.446Z,5.23
2018-08-30T15:40:28.914Z,3.67
2018-08-30T15:42:57.373Z,3.33
2018-08-30T15:45:25.800Z,5.97
2018-08-30T15:47:54.269Z,4.07
2018-08-30T15:50:22.747Z,4.20
2018-08-30T15:52:51.180Z,5.27
2018-08-30T15:55:19.586Z,5.27
2018-08-30T15:57:48.356Z,4.17
2018-08-30T16:00:17.306Z,4.23
2018-08-30T16:02:46.566Z,6.57
2018-08-30T16:05:15.209Z,3.67
2018-08-30T16:07:44.213Z,7.10
2018-08-30T16:10:13.731Z,5.50
2018-08-30T16:12:42.121Z,3.10
2018-08-30T16:15:10.601Z,4.03
2018-08-30T16:17:39.056Z,4.83
2018-08-30T16:20:07.517Z,5.43
2018-08-30T16:22:52.816Z,7.37
2018-08-30T16:25:21.230Z,4.23
2018-08-30T16:27:49.655Z,3.97
2018-08-30T16:30:18.146Z,4.20
2018-08-30T16:32:46.626Z,4.80
2018-08-30T16:35:15.110Z,5.37
2018-08-30T16:37:43.545Z,6.13
2018-08-30T16:40:11.995Z,4.47
2018-08-30T16:42:40.441Z,4.90
2018-08-30T16:45:09.010Z,4.50
2018-08-30T16:47:37.453Z,7.43
2018-08-30T16:50:06.149Z,3.27
2018-08-30T16:52:34.569Z,5.20
2018-08-30T16:55:03.157Z,4.77
2018-08-30T16:57:31.453Z,5.17
2018-08-30T16:59:59.972Z,5.33
2018-08-30T17:02:28.764Z,5.53
2018-08-30T17:05:10.153Z,4.33
2018-08-30T17:07:38.584Z,5.83
2018-08-30T17:10:07.234Z,3.70
2018-08-30T17:12:35.700Z,4.20
2018-08-30T17:15:04.680Z,4.63
2018-08-30T17:17:33.288Z,4.73
2018-08-30T17:20:01.788Z,2.53
2018-08-30T17:22:30.285Z,5.23
2018-08-30T17:24:58.675Z,3.50
2018-08-30T17:27:27.093Z,4.73
2018-08-30T17:29:59.192Z,2.67
2018-08-30T17:32:27.625Z,5.20
2018-08-30T17:34:56.456Z,3.87
2018-08-30T17:37:24.905Z,3.43
2018-08-30T17:39:53.329Z,4.07
2018-08-30T17:42:21.772Z,4.63
2018-08-30T17:44:50.300Z,4.07
2018-08-30T17:47:18.712Z,3.67
2018-08-30T17:49:55.183Z,3.70
2018-08-30T17:52:23.702Z,3.27
2018-08-30T17:54:52.417Z,4.07
2018-08-30T17:57:20.889Z,4.10
2018-08-30T17:59:49.457Z,4.87
2018-08-30T18:02:17.868Z,3.47
2018-08-30T18:04:46.409Z,4.20
2018-08-30T18:07:14.958Z,3.73
2018-08-30T18:09:43.298Z,3.40
2018-08-30T18:12:11.738Z,3.57
2018-08-30T18:14:40.186Z,4.93
2018-08-30T18:17:08.625Z,4.47
2018-08-30T18:19:37.494Z,4.57
2018-08-30T18:22:06.341Z,5.07
2018-08-30T18:24:34.809Z,2.97
2018-08-30T18:27:03.353Z,8.60
2018-08-30T18:29:31.769Z,6.80
2018-08-30T18:32:02.361Z,4.00
2018-08-30T18:34:30.795Z,5.27
2018-08-30T18:36:59.257Z,3.77
2018-08-30T18:39:27.690Z,4.90
2018-08-30T18:41:56.202Z,5.03
2018-08-30T18:44:24.710Z,5.83
2018-08-30T18:46:53.133Z,7.20
2018-08-30T18:49:21.615Z,4.73
2018-08-30T18:51:50.050Z,4.70
2018-08-30T18:54:18.474Z,4.67
2018-08-30T18:56:46.883Z,3.57
2018-08-30T18:59:15.325Z,3.30
2018-08-30T19:01:43.752Z,2.77
2018-08-30T19:04:12.210Z,7.10
2018-08-30T19:06:40.589Z,5.53
2018-08-30T19:09:10.597Z,6.60
2018-08-30T19:11:39.120Z,6.17
2018-08-30T19:14:07.895Z,3.63
2018-08-30T19:16:41.573Z,5.23
2018-08-30T19:19:18.687Z,5.10
2018-08-30T19:21:47.129Z,4.47
2018-08-30T19:24:21.630Z,6.10
2018-08-30T19:26:50.277Z,6.93
2018-08-30T19:29:18.940Z,5.87
2018-08-30T19:31:47.361Z,5.00
2018-08-30T19:34:15.990Z,4.37
2018-08-30T19:36:44.332Z,6.87
2018-08-30T19:39:13.229Z,6.50
2018-08-30T19:41:41.787Z,3.80
2018-08-30T19:44:10.661Z,4.57
2018-08-30T19:46:39.085Z,6.20
2018-08-30T19:49:07.583Z,3.97
2018-08-30T19:51:36.038Z,6.70
2018-08-30T19:54:04.529Z,5.23
2018-08-30T19:56:32.974Z,9.23
2018-08-30T19:59:01.436Z,5.30
2018-08-30T20:01:29.915Z,5.07
2018-08-30T20:03:58.401Z,3.27
2018-08-30T20:06:26.821Z,4.67
2018-08-30T20:08:55.245Z,6.27
2018-08-30T20:11:23.905Z,4.67
2018-08-30T20:13:52.369Z,5.77
2018-08-30T20:16:20.822Z,6.20
2018-08-30T20:18:49.277Z,5.13
2018-08-30T20:21:17.729Z,4.83
2018-08-30T20:23:46.158Z,6.80
2018-08-30T20:26:14.590Z,5.93
2018-08-30T20:28:43.045Z,4.47
2018-08-30T20:31:11.501Z,5.27
2018-08-30T20:33:39.941Z,5.10
2018-08-30T20:36:08.402Z,5.33
2018-08-30T20:38:36.893Z,6.83
2018-08-30T20:41:05.429Z,7.53
2018-08-30T20:43:33.899Z,6.87
2018-08-30T20:46:02.359Z,4.63
2018-08-30T20:48:30.818Z,8.17
2018-08-30T20:50:59.304Z,4.63
2018-08-30T20:53:27.795Z,8.20
2018-08-30T20:55:56.310Z,5.10
2018-08-30T20:58:24.878Z,6.50
2018-08-30T21:00:53.385Z,6.10
2018-08-30T21:03:21.880Z,7.37
2018-08-30T21:05:50.569Z,9.20
2018-08-30T21:08:19.075Z,5.60
2018-08-30T21:10:47.723Z,5.57
2018-08-30T21:13:16.159Z,5.40
2018-08-30T21:15:44.643Z,8.10
2018-08-30T21:18:13.194Z,8.77
2018-08-30T21:20:42.627Z,8.77
2018-08-30T21:23:11.213Z,5.43
2018-08-30T21:25:39.645Z,5.63
2018-08-30T21:28:08.037Z,7.13
2018-08-30T21:30:36.842Z,4.80
2018-08-30T21:33:05.508Z,9.03
2018-08-30T21:35:33.986Z,6.07
2018-08-30T21:38:02.445Z,5.23
2018-08-30T21:40:30.950Z,6.27
2018-08-30T21:42:59.391Z,5.43
2018-08-30T21:45:27.838Z,8.40
2018-08-30T21:47:56.253Z,5.03
2018-08-30T21:50:24.717Z,10.03
2018-08-30T21:52:53.165Z,4.87
2018-08-30T21:55:21.624Z,7.33
2018-08-30T21:57:50.071Z,7.40
2018-08-30T22:00:18.614Z,4.07
2018-08-30T22:02:47.162Z,6.70
2018-08-30T22:05:15.595Z,8.70
2018-08-30T22:07:44.017Z,5.87
2018-08-30T22:10:12.489Z,8.63
2018-08-30T22:12:40.906Z,7.50
2018-08-30T22:15:09.377Z,5.40
2018-08-30T22:17:38.432Z,4.00
2018-08-30T22:20:06.897Z,6.13
2018-08-30T22:22:35.352Z,4.13
2018-08-30T22:25:03.958Z,4.00
2018-08-30T22:27:32.448Z,6.13
2018-08-30T22:30:01.642Z,5.30
2018-08-30T22:32:30.037Z,7.70
2018-08-30T22:34:58.469Z,5.23
2018-08-30T22:37:26.893Z,3.00
2018-08-30T22:39:55.301Z,7.37
2018-08-30T22:42:23.723Z,5.90
2018-08-30T22:44:52.150Z,5.30
2018-08-30T22:47:20.545Z,2.67
2018-08-30T22:49:49.001Z,4.33
2018-08-30T22:52:17.712Z,7.30
2018-08-30T22:54:47.279Z,3.70
2018-08-30T22:57:15.721Z,10.50
2018-08-30T22:59:44.234Z,8.60
2018-08-30T23:02:12.662Z,5.00
2018-08-30T23:04:41.114Z,3.07
2018-08-30T23:07:09.545Z,3.43
2018-08-30T23:09:38.062Z,4.10
2018-08-30T23:12:06.826Z,2.87
2018-08-30T23:14:35.318Z,5.13
2018-08-30T23:17:04.448Z,4.10
2018-08-30T23:19:32.898Z,5.90
2018-08-30T23:22:01.361Z,5.47
2018-08-30T23:24:29.808Z,4.67
2018-08-30T23:26:58.277Z,8.80
2018-08-30T23:29:26.703Z,6.97
2018-08-30T23:31:55.182Z,6.40
2018-08-30T23:34:23.646Z,5.77
2018-08-30T23:36:52.091Z,6.33
2018-08-30T23:39:20.526Z,6.63
2018-08-30T23:41:48.954Z,5.23
2018-08-30T23:44:17.436Z,8.23
2018-08-30T23:46:45.873Z,4.87
2018-08-30T23:49:14.363Z,5.83
2018-08-30T23:51:42.846Z,5.10
2018-08-30T23:54:11.264Z,7.73
2018-08-30T23:56:39.702Z,5.77
2018-08-30T23:59:19.233Z,4.47
